New Middletown, Ohio
Current Conditions -  °F | °C
As of 9:18 PM on Friday 28 Nov 2014 (Local Time) from KYNG Reporting Station
Light Snow Light Snow  
Wind Chill: 19°   Ceiling: 3900
Heat Index: 25°   Visibility: 5mi
Dew Point: 21°   Wind: 5mph
Humidity: 85%   Direction: 150°SSE
Pressure: 30.17"   Gusts: NA
Location:  40.96°N, 80.56°W
Report Text: KYNG 290218Z 15004KT 5SM -SN BR FEW012 SCT020 OVC039 M04/M06 A3017 RMK AO2 P0000 T10391061
Loading
Personal Weather Stations






























Interactive Weather Map New forecast layout! Learn more

10-Day Weather Forecast

Advertisements
Track Severe Weather on mobile